Terminal Aerodrome Forecast
Issued by NWS

Home | Current Version | Previous Version | Text Only | Print | Product List | Glossary On
Versions: 1 2 3 4 5 6 7 8 9 10 11 12
000
FTUS45 KREV 192300
TAFMMH
TAF
KMMH 192333Z 2000/2024 11011G20KT P6SM FEW120
     FM200300 VRB04KT P6SM SKC
     FM201800 11010G18KT P6SM SCT100 BKN140
      AMD NOT SKED 2002/2014=

USA.gov is the U.S. government's official web portal to all federal, state and local government web resources and services.